Time;durP1;ratioP1;P1;durP2;ratioP2;P2;SDS_P1;SDS_P2;PMS_P1;PMS_P2;Temp;Humidity;BMP_temperature;BMP_pressure;BME280_temperature;BME280_humidity;BME280_pressure;Samples;Min_cycle;Max_cycle;Signal;HPM_P1;HPM_P2
2023/05/05 00:00:56;;;;;;;6.37;2.80;;;12.50;98.70;;;;;;5036679;28;20199;-63
2023/05/05 00:03:22;;;;;;;4.10;3.17;;;12.50;98.80;;;;;;5036393;28;20308;-63
2023/05/05 00:05:49;;;;;;;5.17;3.13;;;12.20;99.30;;;;;;5036196;28;20207;-64
2023/05/05 00:08:14;;;;;;;6.63;3.30;;;12.30;99.50;;;;;;5036206;28;20595;-65
2023/05/05 00:10:41;;;;;;;5.77;3.50;;;12.10;99.80;;;;;;5034050;28;20207;-65
2023/05/05 00:13:07;;;;;;;5.57;3.13;;;12.10;99.80;;;;;;5035914;28;20703;-64
2023/05/05 00:15:32;;;;;;;6.10;2.93;;;11.90;99.90;;;;;;5036240;28;20202;-64
2023/05/05 00:17:58;;;;;;;5.73;2.90;;;12.10;99.90;;;;;;5035344;28;20210;-65
2023/05/05 00:20:23;;;;;;;5.60;3.70;;;12.20;99.70;;;;;;5035953;28;20198;-64
2023/05/05 00:22:49;;;;;;;4.67;2.83;;;12.10;99.80;;;;;;5033450;28;20286;-64
2023/05/05 00:25:15;;;;;;;7.27;3.77;;;12.10;99.90;;;;;;5035721;28;20562;-64
2023/05/05 00:27:40;;;;;;;5.37;3.63;;;12.20;99.60;;;;;;5029182;28;20195;-64
2023/05/05 00:30:06;;;;;;;3.57;3.27;;;12.20;99.40;;;;;;5033026;28;21305;-64
2023/05/05 00:32:31;;;;;;;5.57;3.17;;;12.20;99.90;;;;;;5026466;28;20198;-65
2023/05/05 00:34:57;;;;;;;2.97;2.67;;;12.00;99.60;;;;;;5035106;28;20190;-65
2023/05/05 00:37:22;;;;;;;7.00;3.30;;;11.90;99.90;;;;;;5033867;28;20205;-64
2023/05/05 00:39:48;;;;;;;4.57;2.77;;;11.80;99.90;;;;;;5035618;28;20226;-64
2023/05/05 00:42:13;;;;;;;5.30;3.93;;;11.80;99.90;;;;;;5035954;28;20668;-64
2023/05/05 00:44:40;;;;;;;6.73;4.00;;;11.80;99.90;;;;;;5026306;28;20223;-66
2023/05/05 00:47:11;;;;;;;7.40;3.70;;;11.70;99.90;;;;;;5035739;28;20736;-65
2023/05/05 00:49:37;;;;;;;12.77;4.90;;;11.70;99.90;;;;;;5033856;28;20284;-63
2023/05/05 00:52:03;;;;;;;4.97;4.20;;;11.60;99.90;;;;;;5035849;28;20217;-64
2023/05/05 00:54:29;;;;;;;5.33;3.83;;;11.60;99.90;;;;;;5035860;28;20209;-63
2023/05/05 00:56:55;;;;;;;6.57;3.87;;;11.50;99.90;;;;;;5035463;28;20263;-63
2023/05/05 00:59:21;;;;;;;8.13;4.23;;;11.50;99.90;;;;;;5035608;28;20267;-63
2023/05/05 01:01:47;;;;;;;7.17;4.00;;;11.50;99.90;;;;;;5033903;28;20230;-63
2023/05/05 01:04:12;;;;;;;6.37;4.00;;;11.40;99.90;;;;;;5021755;28;20230;-63
2023/05/05 01:06:52;;;;;;;8.33;4.33;;;11.30;99.90;;;;;;5035859;28;20538;-63
2023/05/05 01:09:31;;;;;;;5.10;4.07;;;11.20;99.90;;;;;;5033657;28;20216;-63
2023/05/05 01:12:30;;;;;;;7.30;4.70;;;11.40;99.90;;;;;;5026050;28;20205;-63
2023/05/05 01:15:12;;;;;;;7.90;4.10;;;11.40;99.90;;;;;;5035487;28;20211;-63
2023/05/05 01:17:42;;;;;;;8.83;4.30;;;11.30;99.90;;;;;;5035242;28;20543;-63
2023/05/05 01:20:24;;;;;;;6.43;5.00;;;11.40;99.90;;;;;;5035200;28;20204;-69
2023/05/05 01:22:58;;;;;;;13.33;4.80;;;11.20;99.90;;;;;;5035850;28;20660;-63
2023/05/05 01:25:46;;;;;;;8.17;4.50;;;11.10;99.90;;;;;;5035678;28;20208;-63
2023/05/05 01:28:38;;;;;;;8.87;3.83;;;11.10;99.90;;;;;;5034751;28;20224;-63
2023/05/05 01:31:40;;;;;;;6.13;4.30;;;11.10;99.90;;;;;;5035569;28;20219;-63
2023/05/05 01:34:08;;;;;;;6.00;4.80;;;11.00;99.90;;;;;;5026758;28;20244;-65
2023/05/05 01:36:37;;;;;;;6.43;4.20;;;11.00;99.90;;;;;;5025574;28;20264;-64
2023/05/05 01:39:05;;;;;;;7.80;4.27;;;11.10;99.90;;;;;;5039029;28;20791;-64
2023/05/05 01:41:41;;;;;;;6.10;4.10;;;11.30;99.90;;;;;;5039448;28;20213;-65
2023/05/05 01:44:09;;;;;;;4.33;2.97;;;11.30;99.90;;;;;;5019888;28;20197;-64
2023/05/05 01:46:35;;;;;;;7.13;3.77;;;11.30;99.90;;;;;;5029515;28;20207;-64
2023/05/05 01:49:02;;;;;;;8.30;3.73;;;11.10;99.90;;;;;;5031289;28;20207;-64
2023/05/05 01:51:29;;;;;;;7.07;3.43;;;11.30;99.90;;;;;;5027043;28;20706;-63
2023/05/05 01:53:58;;;;;;;4.40;3.43;;;11.20;99.90;;;;;;5027149;28;20604;-63
2023/05/05 01:56:25;;;;;;;6.53;3.53;;;11.20;99.90;;;;;;5028495;28;20206;-63
2023/05/05 01:58:51;;;;;;;7.20;3.80;;;11.20;99.90;;;;;;5028235;28;20269;-65
2023/05/05 02:01:19;;;;;;;5.23;3.43;;;11.10;99.90;;;;;;5032918;28;20244;-64
2023/05/05 02:03:46;;;;;;;7.70;3.37;;;11.10;99.90;;;;;;5022717;28;20938;-65
2023/05/05 02:06:13;;;;;;;6.67;3.40;;;11.00;99.90;;;;;;5029592;28;20207;-64
2023/05/05 02:08:41;;;;;;;5.20;3.10;;;11.20;99.90;;;;;;5029028;28;20960;-65
2023/05/05 02:11:09;;;;;;;4.80;3.57;;;11.30;99.90;;;;;;5029168;28;20203;-65
2023/05/05 02:13:37;;;;;;;6.47;3.37;;;11.10;99.90;;;;;;5029268;28;20201;-65
2023/05/05 02:16:04;;;;;;;9.57;3.57;;;11.10;99.90;;;;;;5024248;28;20207;-66
2023/05/05 02:18:34;;;;;;;6.07;3.53;;;11.10;99.90;;;;;;5028623;28;20221;-66
2023/05/05 02:21:00;;;;;;;6.27;4.10;;;11.00;99.90;;;;;;5025020;28;20215;-66
2023/05/05 02:23:26;;;;;;;7.67;3.47;;;11.00;99.90;;;;;;5028371;28;20203;-65
2023/05/05 02:25:54;;;;;;;6.73;3.90;;;10.80;99.90;;;;;;5028781;28;20696;-65
2023/05/05 02:28:27;;;;;;;6.10;4.57;;;10.80;99.90;;;;;;5028511;28;20243;-65
2023/05/05 02:30:58;;;;;;;5.93;3.77;;;10.90;99.90;;;;;;5026318;28;20205;-66
2023/05/05 02:33:26;;;;;;;10.93;4.37;;;10.80;99.90;;;;;;5023144;28;20279;-65
2023/05/05 02:35:53;;;;;;;6.90;4.23;;;11.00;99.90;;;;;;5029061;28;21236;-64
2023/05/05 02:38:23;;;;;;;11.47;5.17;;;10.90;99.90;;;;;;5027178;28;20308;-63
2023/05/05 02:40:50;;;;;;;5.27;3.40;;;10.90;99.90;;;;;;5026196;28;20308;-65
2023/05/05 02:43:19;;;;;;;10.10;3.67;;;10.80;99.90;;;;;;5032300;28;20209;-63
2023/05/05 02:45:45;;;;;;;5.93;3.90;;;10.80;99.90;;;;;;5024704;28;20223;-63
2023/05/05 02:48:11;;;;;;;6.13;3.87;;;11.10;99.90;;;;;;5028716;28;20201;-64
2023/05/05 02:50:37;;;;;;;5.50;3.70;;;11.20;99.90;;;;;;5028348;28;20201;-63
2023/05/05 02:53:03;;;;;;;7.63;3.47;;;11.30;99.90;;;;;;5026414;28;20563;-64
2023/05/05 02:55:35;;;;;;;6.27;4.20;;;11.20;99.90;;;;;;5027619;28;20211;-64
2023/05/05 02:58:20;;;;;;;11.07;5.00;;;11.00;99.90;;;;;;5026412;28;20447;-64
2023/05/05 03:01:14;;;;;;;7.77;3.87;;;10.70;99.90;;;;;;5022530;28;20235;-65
2023/05/05 03:03:50;;;;;;;6.23;5.00;;;10.70;99.90;;;;;;5023149;28;20194;-65
2023/05/05 03:06:21;;;;;;;7.67;4.50;;;10.70;99.90;;;;;;5027140;28;20202;-64
2023/05/05 03:09:01;;;;;;;8.77;4.47;;;10.80;99.90;;;;;;5026827;28;20723;-64
2023/05/05 03:11:48;;;;;;;8.53;4.77;;;10.70;99.90;;;;;;5028008;28;20196;-64
2023/05/05 03:14:17;;;;;;;8.40;4.50;;;10.90;99.90;;;;;;5024913;28;20221;-64
2023/05/05 03:16:43;;;;;;;6.43;4.20;;;10.90;99.90;;;;;;5027285;28;20191;-64
2023/05/05 03:19:10;;;;;;;5.37;3.40;;;10.90;99.90;;;;;;5025478;28;20297;-64
2023/05/05 03:21:37;;;;;;;7.37;3.93;;;10.90;99.90;;;;;;5027473;28;20208;-63
2023/05/05 03:24:31;;;;;;;9.90;4.37;;;10.70;99.90;;;;;;5026449;28;20217;-63
2023/05/05 03:26:57;;;;;;;8.77;4.33;;;10.70;99.90;;;;;;5010695;28;21846;-63
2023/05/05 03:29:24;;;;;;;9.90;4.10;;;10.80;99.90;;;;;;5026935;28;20256;-63
2023/05/05 03:31:49;;;;;;;4.83;3.77;;;11.10;99.90;;;;;;5025700;28;20209;-64
2023/05/05 03:34:15;;;;;;;6.93;4.13;;;11.00;99.90;;;;;;5027913;28;20759;-64
2023/05/05 03:36:40;;;;;;;7.33;4.17;;;10.80;99.90;;;;;;5027182;28;20224;-66
2023/05/05 03:39:06;;;;;;;6.87;3.47;;;10.70;99.90;;;;;;5028724;28;20588;-64
2023/05/05 03:41:32;;;;;;;9.73;3.80;;;10.80;99.90;;;;;;5026873;28;20259;-63
2023/05/05 03:43:57;;;;;;;5.10;3.50;;;10.80;99.90;;;;;;5025083;28;20212;-64
2023/05/05 03:46:23;;;;;;;5.33;3.03;;;10.70;99.90;;;;;;5026188;28;20273;-63
2023/05/05 03:48:48;;;;;;;6.43;3.50;;;10.70;99.90;;;;;;5026382;28;20200;-63
2023/05/05 03:51:14;;;;;;;5.47;3.37;;;10.70;99.90;;;;;;5026548;28;20203;-64
2023/05/05 03:53:40;;;;;;;4.13;3.33;;;11.00;99.90;;;;;;5026710;28;20284;-63
2023/05/05 03:56:06;;;;;;;5.67;3.93;;;10.90;99.90;;;;;;5024097;28;20209;-63
2023/05/05 03:58:31;;;;;;;4.47;3.17;;;10.80;99.90;;;;;;5026689;28;20203;-64
2023/05/05 04:00:56;;;;;;;7.50;3.67;;;11.00;99.90;;;;;;5026808;28;20209;-63
2023/05/05 04:03:22;;;;;;;5.07;3.43;;;11.00;99.90;;;;;;5026968;28;20920;-64
2023/05/05 04:05:48;;;;;;;5.03;3.40;;;11.00;99.90;;;;;;5026844;28;20205;-63
2023/05/05 04:08:13;;;;;;;6.77;3.37;;;11.00;99.90;;;;;;5026845;28;20311;-63
2023/05/05 04:10:39;;;;;;;4.67;3.10;;;11.10;99.90;;;;;;5024054;28;20210;-63
2023/05/05 04:13:04;;;;;;;6.00;3.23;;;11.20;99.90;;;;;;5026212;28;20204;-64
2023/05/05 04:15:30;;;;;;;3.67;3.37;;;11.30;99.90;;;;;;5025992;28;20198;-63
2023/05/05 04:17:56;;;;;;;4.87;3.33;;;11.30;99.90;;;;;;5026013;28;20209;-63
2023/05/05 04:20:22;;;;;;;4.43;3.40;;;11.30;99.90;;;;;;5025380;28;20195;-63
2023/05/05 04:22:48;;;;;;;6.13;3.70;;;11.30;99.90;;;;;;5026024;28;20206;-64
2023/05/05 04:25:14;;;;;;;10.57;3.40;;;11.30;99.90;;;;;;5026232;28;20748;-63
2023/05/05 04:27:39;;;;;;;4.93;3.23;;;11.20;99.90;;;;;;5025448;28;20190;-64
2023/05/05 04:30:05;;;;;;;7.23;4.13;;;11.20;99.90;;;;;;5026044;28;20237;-63
2023/05/05 04:32:31;;;;;;;6.73;4.23;;;11.30;99.90;;;;;;5022914;28;20567;-63
2023/05/05 04:34:57;;;;;;;5.47;3.97;;;11.30;99.90;;;;;;5027372;28;20219;-63
2023/05/05 04:37:22;;;;;;;4.13;3.13;;;11.30;99.90;;;;;;5022122;28;20322;-63
2023/05/05 04:39:48;;;;;;;5.90;3.43;;;11.30;99.90;;;;;;5025548;28;20292;-64
2023/05/05 04:42:14;;;;;;;7.33;4.03;;;11.30;99.90;;;;;;5025588;28;20199;-63
2023/05/05 04:44:40;;;;;;;7.67;3.70;;;11.30;99.90;;;;;;5022024;28;20701;-65
2023/05/05 04:47:05;;;;;;;6.83;3.97;;;11.30;99.90;;;;;;5025865;28;20201;-64
2023/05/05 04:49:31;;;;;;;8.53;4.10;;;11.30;99.90;;;;;;5026158;28;20195;-64
2023/05/05 04:51:57;;;;;;;7.50;4.10;;;11.40;99.90;;;;;;5026307;28;20208;-63
2023/05/05 04:54:22;;;;;;;6.93;4.20;;;11.10;99.90;;;;;;5026327;28;20624;-63
2023/05/05 04:56:48;;;;;;;5.60;3.87;;;11.20;99.90;;;;;;5025277;28;20321;-64
2023/05/05 04:59:14;;;;;;;5.33;3.77;;;11.30;99.90;;;;;;5022910;28;20635;-63
2023/05/05 05:01:40;;;;;;;4.20;3.80;;;11.20;99.90;;;;;;5025639;28;20205;-63
2023/05/05 05:04:06;;;;;;;8.37;4.60;;;11.40;99.90;;;;;;5025277;28;20419;-64
2023/05/05 05:06:32;;;;;;;8.97;4.37;;;11.40;99.90;;;;;;5025376;28;20210;-64
2023/05/05 05:08:57;;;;;;;7.50;3.97;;;11.40;99.90;;;;;;5028019;28;20203;-63
2023/05/05 05:11:23;;;;;;;4.90;3.00;;;11.30;99.90;;;;;;5027490;28;20734;-64
2023/05/05 05:13:48;;;;;;;8.73;4.90;;;11.50;99.80;;;;;;5029976;28;20213;-65
2023/05/05 05:16:14;;;;;;;5.73;4.07;;;11.50;99.80;;;;;;5029830;28;20680;-64
2023/05/05 05:18:40;;;;;;;4.70;3.87;;;11.50;99.60;;;;;;5030033;28;20241;-64
2023/05/05 05:21:06;;;;;;;8.30;4.43;;;11.50;99.80;;;;;;5030277;28;20284;-64
2023/05/05 05:23:31;;;;;;;5.93;4.03;;;11.60;99.60;;;;;;5029076;28;20242;-63
2023/05/05 05:25:57;;;;;;;8.57;4.10;;;11.50;99.50;;;;;;5027355;28;20637;-63
2023/05/05 05:28:22;;;;;;;7.07;4.00;;;11.50;99.40;;;;;;5028081;28;20229;-64
2023/05/05 05:30:48;;;;;;;6.63;3.50;;;11.60;99.60;;;;;;5029088;28;20212;-63
2023/05/05 05:33:14;;;;;;;10.87;3.67;;;11.70;99.30;;;;;;5029019;28;20477;-62
2023/05/05 05:35:39;;;;;;;9.03;4.20;;;11.70;99.00;;;;;;5028734;28;20572;-63
2023/05/05 05:38:05;;;;;;;6.70;3.90;;;11.60;99.50;;;;;;5031558;28;20222;-64
2023/05/05 05:40:31;;;;;;;9.77;4.77;;;11.70;99.30;;;;;;5025303;28;20207;-64
2023/05/05 05:42:56;;;;;;;7.37;4.70;;;11.80;99.10;;;;;;5029383;28;20213;-64
2023/05/05 05:45:21;;;;;;;8.60;4.70;;;11.80;99.10;;;;;;5030075;28;20657;-63
2023/05/05 05:47:48;;;;;;;7.97;4.57;;;11.90;98.60;;;;;;5029309;28;20310;-64
2023/05/05 05:50:13;;;;;;;10.20;4.80;;;11.90;98.80;;;;;;5027134;28;20209;-64
2023/05/05 05:52:39;;;;;;;5.20;4.70;;;12.10;98.60;;;;;;5028196;28;20190;-64
2023/05/05 05:55:05;;;;;;;7.83;3.93;;;12.20;98.40;;;;;;5028142;28;20212;-63
2023/05/05 05:57:31;;;;;;;8.47;4.43;;;12.20;98.20;;;;;;5027894;28;20251;-64
2023/05/05 05:59:56;;;;;;;4.93;4.10;;;12.40;98.20;;;;;;5028653;28;20209;-64
2023/05/05 06:02:22;;;;;;;6.77;4.53;;;12.50;97.60;;;;;;5026177;28;20195;-64
2023/05/05 06:04:48;;;;;;;8.90;5.20;;;12.50;97.60;;;;;;5026667;28;20609;-65
2023/05/05 06:07:13;;;;;;;10.73;4.83;;;12.50;97.40;;;;;;5032550;28;20222;-64
2023/05/05 06:09:39;;;;;;;7.47;4.67;;;12.60;97.10;;;;;;5024889;28;20263;-64
2023/05/05 06:12:04;;;;;;;5.57;4.13;;;12.50;96.70;;;;;;5030950;28;20199;-64
2023/05/05 06:14:30;;;;;;;7.23;3.90;;;12.50;96.60;;;;;;5028101;28;20203;-64
2023/05/05 06:16:56;;;;;;;10.47;4.73;;;12.40;96.10;;;;;;5028569;28;20196;-63
2023/05/05 06:19:21;;;;;;;8.03;4.63;;;12.30;96.40;;;;;;5024776;28;20235;-64
2023/05/05 06:21:47;;;;;;;4.80;3.90;;;12.40;96.50;;;;;;5028916;28;20198;-64
2023/05/05 06:24:12;;;;;;;8.47;3.90;;;12.50;96.30;;;;;;5027827;28;20402;-63
2023/05/05 06:26:38;;;;;;;8.40;5.03;;;12.60;95.90;;;;;;5027685;28;20208;-63
2023/05/05 06:29:07;;;;;;;5.97;4.20;;;12.70;95.40;;;;;;5027478;28;20900;-64
2023/05/05 06:31:32;;;;;;;9.37;4.50;;;12.80;95.20;;;;;;5024554;28;20733;-65
2023/05/05 06:33:58;;;;;;;11.17;5.33;;;13.00;99.60;;;;;;5028837;28;20209;-68
2023/05/05 06:36:23;;;;;;;12.10;4.10;;;13.20;97.80;;;;;;5027974;28;20213;-68
2023/05/05 06:38:49;;;;;;;5.83;4.83;;;13.00;96.50;;;;;;5028015;28;20265;-67
2023/05/05 06:41:15;;;;;;;9.83;4.60;;;13.20;96.50;;;;;;5027613;28;20268;-67
2023/05/05 06:43:41;;;;;;;15.90;4.87;;;13.20;96.00;;;;;;5025510;28;20199;-66
2023/05/05 06:46:07;;;;;;;7.30;4.37;;;13.20;94.80;;;;;;5027162;28;20219;-68
2023/05/05 06:48:33;;;;;;;12.23;4.70;;;13.20;96.00;;;;;;5027323;28;20234;-68
2023/05/05 06:50:58;;;;;;;8.60;4.43;;;13.20;94.90;;;;;;5027062;28;20198;-68
2023/05/05 06:53:24;;;;;;;10.67;5.00;;;13.30;94.50;;;;;;5026569;28;20207;-69
2023/05/05 06:55:49;;;;;;;7.00;4.10;;;13.40;93.50;;;;;;5027072;28;20737;-68
2023/05/05 06:58:15;;;;;;;7.47;4.60;;;13.50;93.50;;;;;;5025814;28;20216;-69
2023/05/05 07:00:41;;;;;;;9.73;4.87;;;13.60;94.20;;;;;;5028560;28;20200;-69
2023/05/05 07:03:06;;;;;;;10.40;4.40;;;13.50;94.10;;;;;;5028015;28;20200;-66
2023/05/05 07:05:32;;;;;;;7.47;4.63;;;13.60;93.50;;;;;;5027857;28;20286;-66
2023/05/05 07:07:58;;;;;;;8.93;4.80;;;13.50;93.40;;;;;;5027849;28;20191;-61
2023/05/05 07:10:24;;;;;;;7.43;4.03;;;13.40;93.80;;;;;;5023639;28;20203;-68
2023/05/05 07:12:50;;;;;;;7.27;4.47;;;13.30;94.00;;;;;;5026784;28;20203;-63
2023/05/05 07:15:16;;;;;;;11.97;4.17;;;13.50;94.30;;;;;;5026368;28;20201;-63
2023/05/05 07:17:42;;;;;;;6.03;4.43;;;13.70;93.90;;;;;;5026650;28;20652;-64
2023/05/05 07:20:08;;;;;;;7.20;4.60;;;13.80;92.90;;;;;;5025791;28;20215;-64
2023/05/05 07:22:34;;;;;;;5.70;4.07;;;14.00;92.80;;;;;;5024220;28;20200;-66
2023/05/05 07:25:00;;;;;;;7.67;4.27;;;13.90;92.60;;;;;;5030872;28;20203;-68
2023/05/05 07:27:26;;;;;;;7.13;4.33;;;14.00;93.60;;;;;;5033841;28;20226;-67
2023/05/05 07:29:51;;;;;;;10.43;3.90;;;14.10;92.60;;;;;;5036723;28;20254;-65
2023/05/05 07:32:17;;;;;;;4.73;4.17;;;14.10;92.00;;;;;;5035491;28;20199;-66
2023/05/05 07:34:42;;;;;;;6.27;4.10;;;14.00;93.10;;;;;;5035165;28;20664;-65
2023/05/05 07:37:08;;;;;;;6.47;4.10;;;13.90;92.90;;;;;;5036942;28;20257;-69
2023/05/05 07:39:33;;;;;;;5.47;4.37;;;13.80;93.70;;;;;;5036970;28;20222;-65
2023/05/05 07:42:00;;;;;;;5.60;4.57;;;13.90;93.50;;;;;;5036500;28;20205;-66
2023/05/05 07:44:25;;;;;;;8.53;4.50;;;13.80;92.90;;;;;;5036670;28;20557;-65
2023/05/05 07:46:51;;;;;;;7.70;4.00;;;14.00;93.40;;;;;;5036335;28;20214;-67
2023/05/05 07:49:17;;;;;;;9.40;4.43;;;14.30;92.80;;;;;;5036315;28;20284;-70
2023/05/05 07:51:43;;;;;;;11.53;5.77;;;14.40;92.60;;;;;;5030247;28;20210;-67
2023/05/05 07:54:09;;;;;;;7.93;4.97;;;14.40;92.30;;;;;;5032519;28;20687;-67
2023/05/05 07:56:38;;;;;;;12.70;4.73;;;14.30;92.80;;;;;;5036544;28;20238;-68
2023/05/05 07:59:03;;;;;;;6.90;4.37;;;14.50;92.40;;;;;;5032758;28;20703;-66
2023/05/05 08:01:29;;;;;;;5.83;4.33;;;14.60;91.90;;;;;;5025632;28;20664;-67
2023/05/05 08:03:54;;;;;;;9.77;4.73;;;14.70;92.40;;;;;;5024674;28;20203;-66
2023/05/05 08:06:20;;;;;;;5.23;4.07;;;14.70;92.10;;;;;;5025927;28;20252;-70
2023/05/05 08:08:52;;;;;;;11.63;3.87;;;14.80;91.80;;;;;;5022622;28;20616;-66
2023/05/05 08:11:19;;;;;;;9.73;4.30;;;14.90;91.90;;;;;;5017144;28;20199;-68
2023/05/05 08:13:45;;;;;;;6.87;4.80;;;14.90;91.30;;;;;;5014586;28;20310;-68
2023/05/05 08:16:11;;;;;;;4.90;4.37;;;14.80;92.00;;;;;;5022597;28;20294;-69
2023/05/05 08:18:37;;;;;;;14.47;4.63;;;15.00;91.20;;;;;;5026137;28;20701;-66
2023/05/05 08:21:04;;;;;;;9.00;4.37;;;15.10;90.80;;;;;;5016294;28;20234;-67
2023/05/05 08:23:29;;;;;;;8.93;5.07;;;15.10;91.80;;;;;;5023912;28;20191;-65
2023/05/05 08:25:55;;;;;;;8.60;4.50;;;15.30;92.10;;;;;;5019292;28;20204;-66
2023/05/05 08:28:21;;;;;;;8.80;4.73;;;15.40;91.50;;;;;;5024547;28;20227;-66
2023/05/05 08:30:48;;;;;;;6.03;4.57;;;15.60;91.20;;;;;;5016624;28;20735;-67
2023/05/05 08:33:14;;;;;;;8.53;4.40;;;15.50;91.50;;;;;;5021128;28;20203;-65
2023/05/05 08:35:40;;;;;;;8.70;4.37;;;15.20;90.60;;;;;;5019857;28;20686;-66
2023/05/05 08:38:06;;;;;;;8.13;4.20;;;15.40;91.30;;;;;;5019013;28;20310;-66
2023/05/05 08:40:35;;;;;;;6.33;4.37;;;15.60;90.70;;;;;;5020869;28;20322;-67
2023/05/05 08:43:02;;;;;;;7.70;5.10;;;15.70;90.00;;;;;;5028797;28;20196;-68
2023/05/05 08:45:28;;;;;;;9.20;5.10;;;15.70;90.70;;;;;;5030411;28;20657;-69
2023/05/05 08:47:56;;;;;;;8.77;5.40;;;15.70;90.50;;;;;;5016259;28;20207;-74
2023/05/05 08:50:25;;;;;;;11.97;4.83;;;15.90;90.20;;;;;;5025116;28;20233;-69
2023/05/05 08:52:56;;;;;;;7.20;5.00;;;16.10;89.20;;;;;;5025521;28;20318;-72
2023/05/05 08:55:25;;;;;;;11.47;5.20;;;16.20;88.20;;;;;;5023642;28;20257;-71
2023/05/05 08:57:56;;;;;;;9.03;4.73;;;16.40;89.40;;;;;;5017240;28;20685;-70
2023/05/05 09:00:22;;;;;;;9.93;4.67;;;16.30;88.90;;;;;;5026787;28;20692;-68
2023/05/05 09:02:48;;;;;;;7.53;4.80;;;16.40;87.60;;;;;;5023609;28;20222;-68
2023/05/05 09:05:16;;;;;;;5.97;4.07;;;16.50;86.90;;;;;;5024667;28;20275;-69
2023/05/05 09:07:42;;;;;;;5.83;4.73;;;16.40;87.30;;;;;;5025505;28;20614;-69
2023/05/05 09:10:10;;;;;;;10.60;5.70;;;16.50;88.00;;;;;;5021623;28;20306;-69
2023/05/05 09:12:39;;;;;;;8.87;5.70;;;16.50;90.50;;;;;;5020549;28;20202;-67
2023/05/05 09:15:06;;;;;;;6.50;4.50;;;16.70;88.20;;;;;;5025110;28;20697;-67
2023/05/05 09:17:32;;;;;;;7.67;4.60;;;16.60;90.00;;;;;;5019385;28;20210;-66
2023/05/05 09:20:08;;;;;;;9.63;4.33;;;16.70;90.50;;;;;;5015482;28;20250;-66
2023/05/05 09:22:39;;;;;;;11.00;5.17;;;16.70;89.10;;;;;;5015694;28;20194;-67
2023/05/05 09:25:07;;;;;;;12.67;5.10;;;16.80;89.10;;;;;;5019528;28;20216;-66
2023/05/05 09:27:37;;;;;;;8.47;4.30;;;16.70;88.50;;;;;;5020337;28;20264;-68
2023/05/05 09:30:06;;;;;;;8.17;4.07;;;17.10;86.40;;;;;;5017099;28;20686;-65
2023/05/05 09:32:49;;;;;;;7.90;4.80;;;17.10;85.30;;;;;;5021772;28;20211;-66
2023/05/05 09:35:16;;;;;;;6.80;4.47;;;17.00;83.80;;;;;;5014388;28;20586;-65
2023/05/05 09:37:42;;;;;;;8.43;4.70;;;17.10;84.60;;;;;;5013949;28;20207;-68
2023/05/05 09:40:08;;;;;;;7.00;4.10;;;17.30;84.60;;;;;;5024495;28;20249;-69
2023/05/05 09:42:38;;;;;;;10.60;4.63;;;17.40;85.10;;;;;;5016943;28;20253;-68
2023/05/05 09:45:24;;;;;;;15.17;4.50;;;17.40;82.40;;;;;;5016200;28;20274;-67
2023/05/05 09:47:49;;;;;;;6.80;4.23;;;17.60;82.60;;;;;;5025254;28;20190;-68
2023/05/05 09:50:17;;;;;;;10.73;5.43;;;17.70;82.80;;;;;;5025503;28;20288;-66
2023/05/05 09:52:56;;;;;;;8.20;4.40;;;17.90;80.80;;;;;;5024086;28;20202;-67
2023/05/05 09:55:22;;;;;;;7.73;4.30;;;17.80;81.60;;;;;;5025123;28;20681;-68
2023/05/05 09:57:48;;;;;;;7.90;4.70;;;17.70;81.60;;;;;;5030816;28;20214;-67
2023/05/05 10:00:14;;;;;;;6.40;4.33;;;17.90;80.20;;;;;;5025185;28;20216;-67
2023/05/05 10:02:40;;;;;;;6.53;4.23;;;18.20;77.90;;;;;;5029557;28;20740;-68
2023/05/05 10:05:14;;;;;;;6.10;4.07;;;18.10;80.80;;;;;;5038690;28;20199;-72
2023/05/05 10:07:42;;;;;;;8.63;4.43;;;18.40;80.70;;;;;;5036719;28;20291;-74
2023/05/05 10:10:10;;;;;;;8.33;4.27;;;18.70;79.60;;;;;;5039067;28;20205;-70
2023/05/05 10:12:37;;;;;;;9.00;4.23;;;18.60;79.30;;;;;;5038676;28;20566;-69
2023/05/05 10:15:04;;;;;;;4.70;3.97;;;18.50;79.20;;;;;;5038708;28;20199;-68
2023/05/05 10:17:31;;;;;;;8.67;4.80;;;18.80;77.70;;;;;;5038471;28;20214;-68
2023/05/05 10:19:59;;;;;;;7.87;4.23;;;18.60;75.40;;;;;;5036155;28;20324;-67
2023/05/05 10:22:29;;;;;;;6.47;4.33;;;18.40;76.70;;;;;;5036638;28;20211;-66
2023/05/05 10:25:15;;;;;;;5.60;4.03;;;18.40;78.80;;;;;;5032016;28;20198;-63
2023/05/05 10:27:49;;;;;;;5.13;3.70;;;18.50;77.60;;;;;;5027484;28;20214;-64
2023/05/05 10:30:22;;;;;;;6.70;4.23;;;18.70;78.20;;;;;;5026290;28;20519;-64
2023/05/05 10:32:50;;;;;;;10.17;4.57;;;18.50;77.70;;;;;;5026410;28;20215;-65
2023/05/05 10:35:21;;;;;;;4.23;3.53;;;18.70;77.10;;;;;;5027591;28;20641;-65
2023/05/05 10:37:47;;;;;;;8.27;4.20;;;19.00;77.10;;;;;;5025773;28;20299;-66
2023/05/05 10:40:13;;;;;;;4.87;4.07;;;19.20;78.50;;;;;;5025849;28;20224;-67
2023/05/05 10:42:39;;;;;;;7.00;3.87;;;19.30;75.70;;;;;;5026384;28;20197;-67
2023/05/05 10:45:07;;;;;;;6.00;3.63;;;19.30;77.60;;;;;;5026134;28;20223;-65
2023/05/05 10:47:34;;;;;;;7.97;4.10;;;19.20;75.60;;;;;;5026530;28;20201;-65
2023/05/05 10:50:11;;;;;;;7.57;4.30;;;19.20;76.10;;;;;;5026717;28;20725;-72
2023/05/05 10:53:05;;;;;;;5.73;4.30;;;19.50;74.00;;;;;;5023996;28;20197;-67
2023/05/05 10:55:43;;;;;;;5.07;3.67;;;19.70;76.60;;;;;;5024191;28;20219;-69
2023/05/05 10:58:35;;;;;;;4.97;3.37;;;19.50;75.90;;;;;;5027542;28;20203;-67
2023/05/05 11:01:01;;;;;;;4.13;3.43;;;19.70;74.40;;;;;;5027187;28;20202;-69
2023/05/05 11:03:27;;;;;;;4.27;3.40;;;19.80;73.20;;;;;;5028726;28;20336;-68
2023/05/05 11:06:06;;;;;;;4.80;3.97;;;20.00;72.60;;;;;;5036475;28;20631;-68
2023/05/05 11:08:37;;;;;;;4.47;3.83;;;20.30;72.50;;;;;;5036200;28;20212;-68
2023/05/05 11:11:04;;;;;;;6.20;3.70;;;20.20;69.20;;;;;;5020679;28;20764;-69
2023/05/05 11:13:30;;;;;;;6.40;3.93;;;20.10;72.90;;;;;;5034158;28;20216;-68
2023/05/05 11:15:57;;;;;;;5.37;3.97;;;20.50;69.90;;;;;;5034168;28;20206;-66
2023/05/05 11:18:34;;;;;;;5.23;3.40;;;20.50;71.60;;;;;;5021131;28;20273;-70
2023/05/05 11:20:59;;;;;;;7.17;4.03;;;20.70;70.20;;;;;;5027425;28;20212;-70
2023/05/05 11:23:25;;;;;;;11.87;3.87;;;20.70;68.60;;;;;;5037259;28;20198;-71
2023/05/05 11:25:52;;;;;;;4.23;3.23;;;20.80;67.40;;;;;;5037381;28;20210;-67
2023/05/05 11:28:24;;;;;;;5.23;3.13;;;20.40;68.90;;;;;;5035642;28;20222;-69
2023/05/05 11:30:55;;;;;;;5.40;3.70;;;20.70;68.90;;;;;;5036943;28;20202;-66
2023/05/05 11:33:30;;;;;;;3.83;3.33;;;21.00;67.80;;;;;;5036642;28;20573;-65
2023/05/05 11:36:00;;;;;;;4.10;3.53;;;20.20;66.60;;;;;;5028884;28;20240;-65
2023/05/05 11:38:54;;;;;;;8.53;3.50;;;20.70;67.10;;;;;;5026430;28;20218;-69
2023/05/05 11:41:29;;;;;;;8.13;3.30;;;21.10;66.70;;;;;;5027304;28;20201;-69
2023/05/05 11:44:14;;;;;;;5.00;3.83;;;20.70;66.90;;;;;;5036722;28;20220;-68
2023/05/05 11:47:02;;;;;;;6.30;3.70;;;20.80;64.20;;;;;;5036991;28;20305;-70
2023/05/05 11:49:32;;;;;;;5.43;3.10;;;20.80;67.40;;;;;;5034839;28;20682;-69
2023/05/05 11:52:00;;;;;;;5.77;3.50;;;20.50;66.30;;;;;;5036682;28;20200;-69
2023/05/05 11:54:26;;;;;;;3.73;3.37;;;20.30;66.00;;;;;;5036283;28;20256;-69
2023/05/05 11:56:53;;;;;;;5.63;3.23;;;20.30;67.70;;;;;;5030724;28;20208;-69
2023/05/05 11:59:19;;;;;;;5.53;3.53;;;20.60;69.00;;;;;;5034248;28;20939;-70
2023/05/05 12:01:44;;;;;;;7.50;3.67;;;21.10;65.40;;;;;;5034825;28;20198;-69
2023/05/05 12:04:11;;;;;;;8.80;3.47;;;21.60;63.30;;;;;;5027786;28;20205;-70
2023/05/05 12:06:38;;;;;;;6.23;3.53;;;21.70;64.20;;;;;;5034685;28;20626;-69
2023/05/05 12:09:04;;;;;;;3.77;3.37;;;22.00;62.70;;;;;;5036219;28;20357;-69
2023/05/05 12:11:29;;;;;;;5.60;3.40;;;21.30;62.90;;;;;;5036124;28;20209;-69
2023/05/05 12:14:09;;;;;;;7.73;4.30;;;21.20;63.00;;;;;;5036311;28;20202;-69
2023/05/05 12:16:35;;;;;;;4.47;2.73;;;21.50;61.90;;;;;;5022764;28;20204;-69
2023/05/05 12:19:05;;;;;;;3.73;3.07;;;21.80;60.80;;;;;;5035310;28;20562;-69
2023/05/05 12:21:31;;;;;;;7.27;3.60;;;22.00;61.00;;;;;;5035053;28;20233;-69
2023/05/05 12:23:57;;;;;;;6.10;3.30;;;22.00;62.30;;;;;;5033812;28;20237;-69
2023/05/05 12:26:24;;;;;;;4.87;3.43;;;21.40;62.20;;;;;;5036087;28;20799;-69
2023/05/05 12:28:50;;;;;;;6.28;2.78;;;21.90;61.80;;;;;;5034793;28;20245;-69
2023/05/05 12:31:15;;;;;;;6.53;4.00;;;22.40;59.30;;;;;;5036137;28;20198;-69
2023/05/05 12:33:41;;;;;;;3.90;3.05;;;22.20;61.70;;;;;;5036048;28;20253;-69
2023/05/05 12:36:07;;;;;;;6.43;3.65;;;22.50;58.70;;;;;;5034042;28;20213;-70
2023/05/05 12:38:34;;;;;;;4.40;3.20;;;22.20;58.90;;;;;;5021385;28;20620;-69
2023/05/05 12:41:00;;;;;;;3.08;2.85;;;22.60;59.80;;;;;;5036091;28;20195;-70
2023/05/05 12:43:33;;;;;;;4.13;2.58;;;23.00;60.00;;;;;;5035949;28;20222;-68
2023/05/05 12:45:59;;;;;;;4.30;2.78;;;23.10;59.50;;;;;;5034022;28;20214;-70
2023/05/05 12:48:25;;;;;;;8.30;2.88;;;23.30;60.10;;;;;;5036428;28;20281;-68
2023/05/05 12:50:51;;;;;;;8.15;2.90;;;23.40;58.90;;;;;;5036050;28;20200;-69